createdAt,value
2022-10-12T00:04:25.172Z,27.80
2022-10-12T00:10:14.289Z,24.00
2022-10-12T00:16:05.214Z,24.50
2022-10-12T01:15:46.260Z,23.10
2022-10-12T01:22:06.194Z,27.60
2022-10-12T01:28:00.266Z,24.50
2022-10-12T01:49:06.642Z,29.80
2022-10-12T01:54:23.244Z,24.20
2022-10-12T01:59:54.524Z,22.70
2022-10-12T02:05:20.681Z,25.70
2022-10-12T02:10:57.776Z,29.20
2022-10-12T02:16:02.406Z,23.40
2022-10-12T02:21:05.630Z,21.90
2022-10-12T02:26:09.677Z,21.60
2022-10-12T02:31:22.332Z,22.50
2022-10-12T02:37:17.580Z,21.30
2022-10-12T02:42:27.267Z,26.30
2022-10-12T02:47:30.026Z,24.70
2022-10-12T02:52:32.833Z,21.50
2022-10-12T02:57:35.794Z,24.10
2022-10-12T03:02:38.916Z,19.40
2022-10-12T03:07:41.698Z,22.10
2022-10-12T03:12:49.124Z,23.50
2022-10-12T03:17:53.001Z,22.50
2022-10-12T03:22:55.882Z,20.30
2022-10-12T03:27:58.655Z,20.90
2022-10-12T03:33:01.431Z,20.00
2022-10-12T03:38:04.379Z,19.20
2022-10-12T03:43:07.653Z,18.90
2022-10-12T03:48:10.501Z,21.30
2022-10-12T03:53:13.193Z,20.20
2022-10-12T03:58:16.803Z,21.00
2022-10-12T04:03:19.726Z,21.00
2022-10-12T04:08:23.257Z,22.10
2022-10-12T04:13:26.801Z,24.90
2022-10-12T04:18:29.523Z,24.20
2022-10-12T04:23:32.248Z,25.30
2022-10-12T04:28:35.331Z,21.20
2022-10-12T04:33:38.195Z,26.00
2022-10-12T04:38:40.987Z,24.60
2022-10-12T04:43:43.797Z,23.70
2022-10-12T04:48:46.605Z,26.30
2022-10-12T04:53:49.419Z,26.50
2022-10-12T04:58:52.151Z,29.20
2022-10-12T05:03:54.893Z,24.90
2022-10-12T05:08:57.835Z,25.20
2022-10-12T05:14:00.909Z,27.30
2022-10-12T05:19:04.199Z,28.50
2022-10-12T05:24:07.404Z,24.50
2022-10-12T05:29:10.201Z,27.80
2022-10-12T05:34:12.900Z,29.40
2022-10-12T05:39:15.615Z,27.00
2022-10-12T05:44:18.395Z,27.20
2022-10-12T05:49:21.172Z,28.30
2022-10-12T05:54:23.878Z,26.50
2022-10-12T05:59:26.722Z,22.70
2022-10-12T06:04:29.535Z,27.30
2022-10-12T06:09:32.372Z,25.80
2022-10-12T06:14:35.212Z,26.50
2022-10-12T06:19:38.080Z,29.40
2022-10-12T06:24:40.863Z,27.60
2022-10-12T06:29:43.682Z,34.50
2022-10-12T06:34:46.638Z,35.70
2022-10-12T06:39:49.564Z,33.10
2022-10-12T06:44:52.314Z,29.10
2022-10-12T06:49:55.266Z,31.70
2022-10-12T06:54:58.035Z,31.30
2022-10-12T07:00:00.837Z,29.60
2022-10-12T07:05:04.286Z,29.00
2022-10-12T07:10:07.509Z,30.10
2022-10-12T07:15:10.854Z,32.70
2022-10-12T07:20:14.008Z,32.20
2022-10-12T07:25:16.974Z,29.10
2022-10-12T07:30:19.683Z,32.40
2022-10-12T07:35:22.600Z,34.00
2022-10-12T07:40:26.470Z,31.00
2022-10-12T07:45:29.250Z,26.20
2022-10-12T07:50:32.037Z,26.90
2022-10-12T07:55:35.188Z,26.30
2022-10-12T08:00:37.999Z,28.20
2022-10-12T08:05:40.797Z,22.90
2022-10-12T08:10:43.554Z,23.60
2022-10-12T08:15:50.414Z,26.30
2022-10-12T08:20:53.549Z,22.30
2022-10-12T08:25:57.555Z,24.10
2022-10-12T08:31:00.435Z,24.40
2022-10-12T08:36:05.260Z,24.70
2022-10-12T08:41:23.260Z,22.70
2022-10-12T08:46:26.530Z,20.00
2022-10-12T08:51:31.867Z,23.50
2022-10-12T08:56:36.096Z,19.90
2022-10-12T09:01:52.491Z,21.00
2022-10-12T09:07:03.445Z,22.50
2022-10-12T09:12:25.250Z,21.90
2022-10-12T09:17:40.624Z,19.90
2022-10-12T09:22:45.676Z,20.40
2022-10-12T09:27:48.656Z,19.70
2022-10-12T09:33:12.157Z,22.10
2022-10-12T09:38:15.451Z,15.00
2022-10-12T09:43:18.250Z,12.30
2022-10-12T09:48:23.302Z,11.30
2022-10-12T09:53:32.806Z,13.50
2022-10-12T09:59:05.006Z,8.80
2022-10-12T10:04:24.385Z,8.30
2022-10-12T10:09:30.310Z,14.40
2022-10-12T10:14:33.139Z,11.20
2022-10-12T10:19:36.120Z,10.20
2022-10-12T10:24:39.024Z,10.30
2022-10-12T10:29:42.302Z,11.10
2022-10-12T10:34:45.076Z,10.70
2022-10-12T10:39:51.033Z,11.70
2022-10-12T10:45:02.957Z,6.30
2022-10-12T10:50:06.733Z,7.20
2022-10-12T10:55:26.634Z,9.10
2022-10-12T11:00:39.850Z,8.80
2022-10-12T11:05:45.850Z,7.60
2022-10-12T11:10:56.565Z,10.60
2022-10-12T11:16:11.042Z,6.50
2022-10-12T11:21:31.150Z,11.40
2022-10-12T11:26:48.395Z,10.80
2022-10-12T11:32:35.041Z,9.60
2022-10-12T11:37:44.056Z,9.10
2022-10-12T11:42:46.854Z,10.20
2022-10-12T11:47:54.180Z,6.90
2022-10-12T11:52:57.288Z,8.30
2022-10-12T11:58:07.450Z,13.10
2022-10-12T12:03:29.630Z,10.90
2022-10-12T12:08:41.617Z,8.20
2022-10-12T12:13:44.532Z,7.80
2022-10-12T12:19:12.252Z,12.00
2022-10-12T12:24:16.843Z,10.20
2022-10-12T12:29:27.416Z,8.60
2022-10-12T12:34:30.209Z,7.70
2022-10-12T12:39:34.047Z,6.80
2022-10-12T12:44:42.814Z,9.40
2022-10-12T12:49:54.999Z,7.50
2022-10-12T12:55:16.396Z,9.40
2022-10-12T13:00:22.171Z,9.20
2022-10-12T13:05:50.525Z,9.80
2022-10-12T13:11:39.624Z,7.80
2022-10-12T13:22:31.588Z,8.90
2022-10-12T13:27:50.984Z,7.80
2022-10-12T13:33:06.169Z,8.80
2022-10-12T13:38:15.044Z,9.80
2022-10-12T13:43:36.636Z,6.60
2022-10-12T13:48:58.743Z,7.90
2022-10-12T13:54:02.228Z,9.50
2022-10-12T13:59:08.369Z,9.00
2022-10-12T14:04:13.594Z,6.10
2022-10-12T14:09:20.865Z,7.80
2022-10-12T14:14:34.267Z,4.80
2022-10-12T14:19:40.318Z,8.20
2022-10-12T14:24:43.097Z,5.00
2022-10-12T14:29:46.262Z,7.80
2022-10-12T14:34:50.373Z,7.70
2022-10-12T14:39:59.625Z,6.70
2022-10-12T14:45:07.021Z,9.20
2022-10-12T14:50:11.748Z,4.30
2022-10-12T14:55:20.807Z,6.60
2022-10-12T15:00:27.909Z,10.00
2022-10-12T15:05:32.139Z,8.50
2022-10-12T15:10:35.506Z,7.50
2022-10-12T15:15:39.707Z,6.60
2022-10-12T15:20:48.278Z,7.60
2022-10-12T15:25:55.932Z,8.30
2022-10-12T15:31:16.938Z,9.90
2022-10-12T15:36:20.252Z,11.00
2022-10-12T15:41:23.076Z,10.70
2022-10-12T15:46:27.428Z,15.00
2022-10-12T15:51:30.270Z,9.80
2022-10-12T15:56:34.515Z,11.20
2022-10-12T16:01:37.561Z,11.80
2022-10-12T16:06:41.161Z,9.30
2022-10-12T16:11:43.947Z,12.10
2022-10-12T16:16:46.823Z,16.10
2022-10-12T16:21:49.601Z,15.20
2022-10-12T16:26:52.489Z,11.00
2022-10-12T16:31:55.761Z,11.30
2022-10-12T16:36:59.026Z,10.20
2022-10-12T16:42:01.888Z,11.20
2022-10-12T16:47:05.914Z,17.90
2022-10-12T16:52:09.016Z,15.20
2022-10-12T16:57:12.430Z,16.50
2022-10-12T17:02:17.026Z,15.80
2022-10-12T17:07:20.178Z,15.30
2022-10-12T17:12:23.861Z,15.30
2022-10-12T17:17:26.818Z,13.90
2022-10-12T17:22:29.639Z,14.00
2022-10-12T17:27:32.917Z,11.90
2022-10-12T17:32:37.957Z,12.90
2022-10-12T17:37:40.829Z,10.50
2022-10-12T17:42:43.617Z,13.80
2022-10-12T17:47:49.046Z,15.00
2022-10-12T17:52:51.889Z,14.90
2022-10-12T17:57:54.691Z,14.30
2022-10-12T18:02:58.617Z,12.50
2022-10-12T18:08:01.557Z,13.70
2022-10-12T18:13:04.408Z,12.70
2022-10-12T18:18:10.470Z,12.80
2022-10-12T18:23:15.996Z,13.50
2022-10-12T18:28:19.064Z,12.40
2022-10-12T18:33:22.616Z,14.00
2022-10-12T18:38:25.479Z,16.20
2022-10-12T18:43:28.318Z,14.30
2022-10-12T18:48:31.179Z,16.00
2022-10-12T18:53:35.078Z,14.20
2022-10-12T18:58:42.013Z,14.70
2022-10-12T19:03:44.983Z,22.10
2022-10-12T19:08:48.581Z,20.50
2022-10-12T19:13:57.251Z,18.90
2022-10-12T19:19:02.803Z,22.10
2022-10-12T19:24:07.026Z,20.90
2022-10-12T19:29:10.229Z,18.40
2022-10-12T19:34:14.868Z,16.60
2022-10-12T19:39:20.650Z,15.50
2022-10-12T19:44:23.612Z,15.50
2022-10-12T19:49:26.365Z,16.60
2022-10-12T19:54:30.539Z,17.30
2022-10-12T19:59:35.969Z,16.30
2022-10-12T20:04:38.756Z,15.60
2022-10-12T20:09:41.553Z,16.90
2022-10-12T20:14:44.312Z,18.90
2022-10-12T20:19:49.830Z,17.40
2022-10-12T20:24:52.853Z,20.20
2022-10-12T20:29:55.644Z,26.60
2022-10-12T20:34:58.462Z,36.60
2022-10-12T20:40:01.868Z,33.50
2022-10-12T20:45:05.281Z,38.90
2022-10-12T20:50:08.570Z,45.50
2022-10-12T20:55:11.517Z,39.00
2022-10-12T21:00:14.510Z,37.20
2022-10-12T21:05:17.452Z,33.30
2022-10-12T21:10:20.191Z,39.70
2022-10-12T21:15:22.978Z,39.70
2022-10-12T21:20:25.842Z,46.60
2022-10-12T21:25:28.645Z,43.20
2022-10-12T21:30:31.404Z,46.20
2022-10-12T21:35:34.525Z,40.80
2022-10-12T21:40:37.365Z,42.80
2022-10-12T21:45:40.185Z,45.50
2022-10-12T21:50:42.966Z,43.30
2022-10-12T21:55:45.981Z,46.00
2022-10-12T22:00:49.008Z,46.60
2022-10-12T22:05:51.775Z,43.30
2022-10-12T22:10:54.944Z,50.10
2022-10-12T22:16:06.833Z,48.30
2022-10-12T22:21:12.804Z,48.30
2022-10-12T22:26:19.013Z,50.10
2022-10-12T22:31:22.953Z,52.20
2022-10-12T22:36:26.078Z,53.00
2022-10-12T22:41:28.895Z,55.90
2022-10-12T22:46:31.662Z,54.20
2022-10-12T22:51:37.369Z,53.60
2022-10-12T22:56:40.878Z,56.40
2022-10-12T23:01:43.854Z,54.90
2022-10-12T23:06:46.673Z,57.90
2022-10-12T23:11:49.907Z,53.60
2022-10-12T23:16:52.766Z,54.50
2022-10-12T23:21:55.505Z,53.70
2022-10-12T23:26:58.229Z,54.20
2022-10-12T23:32:00.967Z,60.20
2022-10-12T23:37:03.728Z,62.50
2022-10-12T23:42:06.473Z,55.90
2022-10-12T23:47:09.277Z,60.00
2022-10-12T23:52:12.033Z,60.70
2022-10-12T23:57:41.502Z,55.30
